Meteo Giornale » Osservazioni meteo Giappone » Aomori
ore: 22:00 - Osservazioni Meteo Aomori
Lat. 40° 44' N Lon. 140° 42' E Alt. 199 metri s.l.m.
20 °C
Coperto
Temp. 24 Ore
18 °C
24 °C
Nord
1.8 Km/h
Dew point 18 °C
Umidità 88 %
Visibilità 10 Km
Il sole sorge alle ore 05:03
Il sole tramonta alle ore 18:10
| Data e Ora | Cielo e Fenomeni | T °C | DP °C | Um. % | Pres. hPa | Vis. km | Vento km/h | |
|---|---|---|---|---|---|---|---|---|
| Oggi h: 22:00 | Coperto | 20 | 18 | 88 | 1014 | 10 | N 1.8 | |
| Oggi h: 21:00 | Molto Nuvoloso | 20 | 18 | 88 | 1015 | 10 | NO 7.4 | |
| Oggi h: 20:00 | Molto Nuvoloso | 20 | 19 | 93 | 1015 | 10 | N 1.8 | |
| Oggi h: 19:00 | Molto Nuvoloso | 21 | 19 | 88 | 1014 | 10 | N 1.8 | |
| Oggi h: 18:00 | Molto Nuvoloso | 21 | 18 | 82 | 1015 | 10 | E 11.1 | |
| Oggi h: 17:00 | Molto Nuvoloso | 22 | 18 | 78 | 1015 | 10 | E 13 | |
| Oggi h: 16:00 | Molto Nuvoloso | 24 | 19 | 73 | 1015 | 10 | E/NE 13 | |
| Oggi h: 15:00 | Molto Nuvoloso | 24 | 19 | 73 | 1015 | 10 | E/NE 13 | |
| Oggi h: 14:00 | Molto Nuvoloso | 24 | 20 | 78 | 1016 | 10 | NE 9.3 | |
| Oggi h: 13:00 | Molto Nuvoloso | 24 | 20 | 78 | 1016 | 10 | NE 9.3 | |
| Oggi h: 12:00 | Molto Nuvoloso | 24 | 19 | 73 | 1016 | 10 | NE 13 | |
| Oggi h: 11:00 | Molto Nuvoloso | 23 | 19 | 78 | 1016 | 10 | N 7.4 | |
| Oggi h: 10:00 | Pioggia | 21 | 19 | 88 | 1017 | 10 | N 3.7 | |
| Oggi h: 09:00 | Pioggia | 21 | 18 | 82 | 1017 | 10 | N 3.7 | |
| Oggi h: 08:00 | Molto Nuvoloso | 20 | 18 | 88 | 1017 | 10 | N 1.8 | |
| Oggi h: 07:30 | Molto Nuvoloso | 19 | 18 | 93 | 1017 | 10 | N 3.7 | |
| Oggi h: 07:00 | Sereno | 19 | 18 | 93 | 1017 | 10 | N 5.5 | |
| Oggi h: 06:00 | Sereno | 18 | 18 | 100 | 1016 | 10 | N 3.7 | |
| Oggi h: 05:00 | Sereno | 18 | 18 | 100 | 1016 | 10 | N 1.8 | |
| Oggi h: 04:00 | Sereno | 18 | 18 | 100 | 1016 | 10 | N 3.7 | |
| Oggi h: 03:00 | Sereno | 18 | 18 | 100 | 1017 | 10 | N 5.5 | |
| Oggi h: 02:00 | Sereno | 18 | 18 | 100 | 1016 | 10 | N 3.7 | |
| Oggi h: 01:00 | Sereno | 18 | 18 | 100 | 1016 | 10 | N 1.8 | |
| Oggi h: 00:00 | Sereno | 18 | 18 | 100 | 1016 | 10 | N 5.5 | |
| Ieri h: 23:00 | Sereno | 18 | 18 | 100 | 1016 | 10 | N 5.5 | |



